createdAt,value
2023-03-21T00:00:48.231Z,6.88
2023-03-21T00:03:16.248Z,7.18
2023-03-21T00:05:49.613Z,5.90
2023-03-21T00:08:16.198Z,6.78
2023-03-21T00:10:43.890Z,6.30
2023-03-21T00:13:15.398Z,7.38
2023-03-21T00:16:06.162Z,5.57
2023-03-21T00:18:46.565Z,5.90
2023-03-21T00:21:39.534Z,6.55
2023-03-21T00:24:02.624Z,6.95
2023-03-21T00:26:29.292Z,6.85
2023-03-21T00:28:55.740Z,7.45
2023-03-21T00:31:22.152Z,6.28
2023-03-21T00:33:48.562Z,6.63
2023-03-21T00:36:15.851Z,6.35
2023-03-21T00:38:42.681Z,7.07
2023-03-21T00:41:23.276Z,7.18
2023-03-21T00:43:55.325Z,6.63
2023-03-21T00:46:23.272Z,6.30
2023-03-21T00:48:49.928Z,7.13
2023-03-21T00:51:25.892Z,5.97
2023-03-21T00:53:57.132Z,7.45
2023-03-21T00:56:23.641Z,7.05
2023-03-21T00:58:51.107Z,6.68
2023-03-21T01:01:18.333Z,7.70
2023-03-21T01:03:50.719Z,6.57
2023-03-21T01:06:22.145Z,6.40
2023-03-21T01:08:52.642Z,7.00
2023-03-21T01:11:22.992Z,6.72
2023-03-21T01:14:20.956Z,6.25
2023-03-21T01:16:37.625Z,6.57
2023-03-21T01:19:11.869Z,6.57
2023-03-21T01:21:41.262Z,6.55
2023-03-21T01:24:08.043Z,7.45
2023-03-21T01:26:34.496Z,6.82
2023-03-21T01:29:00.925Z,7.97
2023-03-21T01:31:27.380Z,7.30
2023-03-21T01:33:53.792Z,7.15
2023-03-21T01:36:24.313Z,8.00
2023-03-21T01:38:52.243Z,7.50
2023-03-21T01:41:26.200Z,8.20
2023-03-21T01:43:55.308Z,9.00
2023-03-21T01:46:54.476Z,9.77
2023-03-21T01:49:28.650Z,9.20
2023-03-21T01:52:11.539Z,9.13
2023-03-21T01:54:43.001Z,8.35
2023-03-21T01:57:13.809Z,9.30
2023-03-21T01:59:54.483Z,10.20
2023-03-21T02:02:28.368Z,9.70
2023-03-21T02:04:58.132Z,11.13
2023-03-21T02:07:29.759Z,10.65
2023-03-21T02:09:57.914Z,10.63
2023-03-21T02:12:26.542Z,11.32
2023-03-21T02:14:53.544Z,11.85
2023-03-21T02:17:59.497Z,11.70
2023-03-21T02:20:52.319Z,11.98
2023-03-21T02:23:30.477Z,12.00
2023-03-21T02:26:15.624Z,12.75
2023-03-21T02:28:47.664Z,12.25
2023-03-21T02:32:09.291Z,13.05
2023-03-21T02:34:46.273Z,14.23
2023-03-21T02:37:42.919Z,13.35
2023-03-21T02:40:30.763Z,13.98
2023-03-21T02:43:23.366Z,15.60
2023-03-21T02:46:28.298Z,14.70
2023-03-21T02:49:38.522Z,15.02
2023-03-21T02:52:17.073Z,15.90
2023-03-21T02:54:49.436Z,15.18
2023-03-21T02:57:19.324Z,17.13
2023-03-21T02:59:55.553Z,16.85
2023-03-21T03:02:27.099Z,17.45
2023-03-21T03:04:53.661Z,17.70
2023-03-21T03:07:41.489Z,16.27
2023-03-21T03:10:31.401Z,18.25
2023-03-21T03:13:18.605Z,19.35
2023-03-21T03:15:57.249Z,18.80
2023-03-21T03:18:23.964Z,18.23
2023-03-21T03:21:15.536Z,21.42
2023-03-21T03:23:54.052Z,20.30
2023-03-21T03:26:41.025Z,22.33
2023-03-21T03:29:12.146Z,21.70
2023-03-21T03:31:48.958Z,23.55
2023-03-21T03:34:21.111Z,22.90
2023-03-21T03:36:56.096Z,26.00
2023-03-21T03:39:35.590Z,28.05
2023-03-21T03:42:21.756Z,26.88
2023-03-21T03:44:54.120Z,26.75
2023-03-21T03:47:35.062Z,26.85
2023-03-21T03:50:13.330Z,27.80
2023-03-21T03:52:56.233Z,27.65
2023-03-21T03:55:27.045Z,27.95
2023-03-21T03:57:54.868Z,26.80
2023-03-21T04:00:21.438Z,26.95
2023-03-21T04:02:47.926Z,28.83
2023-03-21T04:05:14.474Z,28.08
2023-03-21T04:07:41.288Z,29.48
2023-03-21T04:10:08.145Z,31.50
2023-03-21T04:12:34.554Z,29.73
2023-03-21T04:15:09.945Z,30.02
2023-03-21T04:17:38.347Z,29.98
2023-03-21T04:20:12.346Z,29.80
2023-03-21T04:22:41.909Z,30.13
2023-03-21T04:25:09.150Z,30.20
2023-03-21T04:27:35.681Z,30.40
2023-03-21T04:30:03.417Z,30.45
2023-03-21T04:32:33.781Z,30.30
2023-03-21T04:35:00.802Z,30.60
2023-03-21T04:37:27.926Z,32.40
2023-03-21T04:39:54.801Z,32.85
2023-03-21T04:42:21.414Z,31.63
2023-03-21T04:44:48.900Z,29.40
2023-03-21T04:47:16.311Z,31.92
2023-03-21T04:49:43.485Z,32.38
2023-03-21T04:52:09.896Z,33.40
2023-03-21T04:54:36.866Z,32.05
2023-03-21T04:57:04.564Z,32.78
2023-03-21T04:59:31.576Z,31.92
2023-03-21T05:01:58.610Z,33.08
2023-03-21T05:04:27.227Z,32.83
2023-03-21T05:06:54.985Z,31.85
2023-03-21T05:09:22.258Z,34.35
2023-03-21T05:11:49.319Z,32.85
2023-03-21T05:14:19.128Z,32.30
2023-03-21T05:16:53.128Z,34.65
2023-03-21T05:19:22.708Z,33.22
2023-03-21T05:21:49.953Z,32.78
2023-03-21T05:24:19.917Z,33.03
2023-03-21T05:26:50.394Z,32.58
2023-03-21T05:29:18.731Z,34.03
2023-03-21T05:31:46.178Z,34.47
2023-03-21T05:34:13.821Z,34.50
2023-03-21T05:36:40.276Z,33.72
2023-03-21T05:39:06.938Z,34.67
2023-03-21T05:41:33.420Z,33.63
2023-03-21T05:44:00.722Z,34.80
2023-03-21T05:46:27.265Z,35.30
2023-03-21T05:48:53.757Z,34.92
2023-03-21T05:51:20.148Z,34.65
2023-03-21T05:53:46.639Z,33.25
2023-03-21T05:56:13.065Z,33.30
2023-03-21T05:58:39.504Z,35.05
2023-03-21T06:01:06.331Z,32.20
2023-03-21T06:03:32.900Z,33.15
2023-03-21T06:05:59.496Z,32.75
2023-03-21T06:08:25.905Z,32.72
2023-03-21T06:10:52.455Z,32.88
2023-03-21T06:13:18.861Z,34.00
2023-03-21T06:15:45.347Z,33.95
2023-03-21T06:18:11.749Z,33.88
2023-03-21T06:20:38.258Z,34.85
2023-03-21T06:23:04.677Z,36.60
2023-03-21T06:25:31.168Z,34.97
2023-03-21T06:27:57.592Z,33.85
2023-03-21T06:30:24.042Z,35.15
2023-03-21T06:32:50.723Z,35.90
2023-03-21T06:35:17.190Z,32.30
2023-03-21T06:37:45.391Z,33.13
2023-03-21T06:40:13.656Z,35.00
2023-03-21T06:42:40.277Z,33.15
2023-03-21T06:45:07.141Z,34.05
2023-03-21T06:47:33.617Z,33.45
2023-03-21T06:50:00.025Z,32.35
2023-03-21T06:52:26.394Z,34.65
2023-03-21T06:54:52.869Z,34.83
2023-03-21T06:57:21.761Z,32.95
2023-03-21T06:59:48.184Z,33.30
2023-03-21T07:02:15.130Z,31.77
2023-03-21T07:04:41.710Z,31.75
2023-03-21T07:07:08.194Z,31.85
2023-03-21T07:09:34.839Z,35.08
2023-03-21T07:12:01.345Z,33.47
2023-03-21T07:14:28.009Z,32.42
2023-03-21T07:16:54.507Z,32.90
2023-03-21T07:19:20.908Z,33.00
2023-03-21T07:21:47.340Z,34.22
2023-03-21T07:24:13.788Z,33.08
2023-03-21T07:26:40.294Z,34.88
2023-03-21T07:29:06.776Z,31.20
2023-03-21T07:31:33.372Z,32.45
2023-03-21T07:33:59.809Z,34.78
2023-03-21T07:36:26.453Z,32.60
2023-03-21T07:38:52.901Z,34.20
2023-03-21T07:41:19.348Z,35.53
2023-03-21T07:43:45.882Z,36.33
2023-03-21T07:46:12.384Z,35.35
2023-03-21T07:48:39.049Z,35.03
2023-03-21T07:51:06.429Z,35.13
2023-03-21T07:53:33.148Z,36.70
2023-03-21T07:55:59.544Z,36.78
2023-03-21T07:58:27.160Z,36.55
2023-03-21T08:00:55.406Z,37.92
2023-03-21T08:03:23.750Z,36.92
2023-03-21T08:05:50.607Z,34.92
2023-03-21T08:08:17.072Z,38.38
2023-03-21T08:10:44.383Z,35.58
2023-03-21T08:13:10.981Z,35.70
2023-03-21T08:15:38.155Z,35.08
2023-03-21T08:18:04.864Z,35.08
2023-03-21T08:20:31.328Z,35.88
2023-03-21T08:22:57.786Z,37.50
2023-03-21T08:25:24.236Z,35.33
2023-03-21T08:27:51.678Z,34.60
2023-03-21T08:30:21.850Z,33.15
2023-03-21T08:32:49.158Z,35.33
2023-03-21T08:35:18.179Z,33.40
2023-03-21T08:37:44.946Z,33.53
2023-03-21T08:40:15.606Z,33.65
2023-03-21T08:42:42.496Z,35.35
2023-03-21T08:45:10.957Z,33.80
2023-03-21T08:47:37.492Z,32.67
2023-03-21T08:50:09.385Z,31.88
2023-03-21T08:52:35.904Z,32.10
2023-03-21T08:55:02.692Z,31.95
2023-03-21T08:57:29.961Z,29.98
2023-03-21T08:59:56.964Z,30.63
2023-03-21T09:02:23.724Z,30.27
2023-03-21T09:04:53.044Z,29.85
2023-03-21T09:07:20.063Z,30.52
2023-03-21T09:09:53.454Z,30.75
2023-03-21T09:12:24.617Z,30.60
2023-03-21T09:14:53.064Z,30.17
2023-03-21T09:17:21.212Z,30.30
2023-03-21T09:19:49.261Z,29.63
2023-03-21T09:22:17.319Z,28.63
2023-03-21T09:24:47.530Z,30.00
2023-03-21T09:27:15.739Z,29.55
2023-03-21T09:29:44.659Z,29.92
2023-03-21T09:32:13.329Z,28.83
2023-03-21T09:34:41.118Z,29.02
2023-03-21T09:37:13.117Z,29.00
2023-03-21T09:39:44.719Z,27.67
2023-03-21T09:42:20.659Z,27.88
2023-03-21T09:45:07.590Z,28.15
2023-03-21T09:47:49.453Z,28.88
2023-03-21T09:50:31.923Z,26.38
2023-03-21T09:53:06.029Z,27.23
2023-03-21T09:55:40.927Z,25.42
2023-03-21T09:58:29.720Z,26.65
2023-03-21T10:01:05.242Z,25.20
2023-03-21T10:03:36.837Z,24.40
2023-03-21T10:06:13.147Z,25.05
2023-03-21T10:08:41.848Z,22.70
2023-03-21T10:11:22.582Z,22.60
2023-03-21T10:13:59.942Z,22.80
2023-03-21T10:16:36.705Z,23.38
2023-03-21T10:19:10.304Z,23.27
2023-03-21T10:24:28.465Z,21.27
2023-03-21T10:26:56.226Z,23.02
2023-03-21T10:29:29.224Z,21.88
2023-03-21T10:31:56.200Z,22.92
2023-03-21T10:34:37.490Z,24.33
2023-03-21T10:37:05.584Z,24.02
2023-03-21T10:39:43.557Z,21.38
2023-03-21T10:42:19.455Z,23.40
2023-03-21T10:44:49.237Z,23.98
2023-03-21T10:47:25.487Z,23.30
2023-03-21T10:50:09.640Z,24.30
2023-03-21T10:52:45.503Z,23.15
2023-03-21T10:55:28.764Z,24.95
2023-03-21T10:57:59.993Z,25.10
2023-03-21T11:00:33.581Z,24.73
2023-03-21T11:03:00.499Z,25.38
2023-03-21T11:05:35.016Z,23.25
2023-03-21T11:08:18.772Z,24.20
2023-03-21T11:10:55.216Z,23.80
2023-03-21T11:13:32.682Z,25.23
2023-03-21T11:16:07.103Z,24.38
2023-03-21T11:18:39.084Z,25.45
2023-03-21T11:21:08.575Z,24.90
2023-03-21T11:23:41.190Z,25.17
2023-03-21T11:26:17.460Z,24.20
2023-03-21T11:28:45.971Z,24.05
2023-03-21T11:31:12.840Z,24.52
2023-03-21T11:33:45.903Z,24.25
2023-03-21T11:36:18.551Z,22.85
2023-03-21T11:38:50.805Z,21.90
2023-03-21T11:41:25.588Z,24.67
2023-03-21T11:43:54.010Z,22.50
2023-03-21T11:46:29.078Z,21.80
2023-03-21T11:48:57.372Z,22.50
2023-03-21T11:51:53.901Z,21.60
2023-03-21T11:54:35.781Z,21.25
2023-03-21T11:59:56.751Z,21.50
2023-03-21T12:02:41.406Z,20.83
2023-03-21T12:05:19.146Z,22.65
2023-03-21T12:07:59.313Z,21.63
2023-03-21T12:10:43.236Z,22.20
2023-03-21T12:13:21.520Z,20.60
2023-03-21T12:16:04.045Z,24.42
2023-03-21T12:18:53.921Z,22.45
2023-03-21T12:21:29.175Z,19.05
2023-03-21T12:24:20.180Z,17.10
2023-03-21T12:27:02.847Z,18.60
2023-03-21T12:30:03.224Z,19.05
2023-03-21T12:32:54.455Z,20.90
2023-03-21T12:35:29.773Z,20.40
2023-03-21T12:38:15.902Z,19.75
2023-03-21T12:41:10.293Z,21.67
2023-03-21T12:43:58.482Z,19.60
2023-03-21T12:46:37.179Z,18.00
2023-03-21T12:49:13.804Z,18.95
2023-03-21T12:51:44.071Z,19.48
2023-03-21T12:54:23.471Z,19.15
2023-03-21T12:56:57.227Z,19.27
2023-03-21T12:59:38.889Z,19.15
2023-03-21T13:02:17.378Z,19.95
2023-03-21T13:05:00.176Z,19.23
2023-03-21T13:07:31.809Z,17.77
2023-03-21T13:09:59.433Z,18.95
2023-03-21T13:12:41.755Z,17.55
2023-03-21T13:15:24.878Z,19.40
2023-03-21T13:18:01.999Z,21.48
2023-03-21T13:20:46.233Z,21.23
2023-03-21T13:23:13.856Z,21.05
2023-03-21T13:25:47.443Z,19.00
2023-03-21T13:28:28.266Z,18.27
2023-03-21T13:31:16.737Z,18.75
2023-03-21T13:33:46.704Z,16.83
2023-03-21T13:36:16.080Z,17.42
2023-03-21T13:38:50.232Z,17.95
2023-03-21T13:41:28.376Z,16.42
2023-03-21T13:43:57.500Z,17.25
2023-03-21T13:46:26.869Z,18.02
2023-03-21T13:48:58.922Z,17.83
2023-03-21T13:51:28.902Z,18.67
2023-03-21T13:54:11.428Z,17.30
2023-03-21T13:56:46.991Z,18.45
2023-03-21T13:59:17.347Z,18.55
2023-03-21T14:02:19.296Z,17.98
2023-03-21T14:05:04.253Z,18.40
2023-03-21T14:07:36.695Z,18.02
2023-03-21T14:10:08.568Z,18.67
2023-03-21T14:12:40.738Z,18.20
2023-03-21T14:15:26.197Z,20.27
2023-03-21T14:17:56.955Z,20.40
2023-03-21T14:20:29.148Z,18.05
2023-03-21T14:22:55.763Z,17.10
2023-03-21T14:25:29.250Z,16.85
2023-03-21T14:28:01.471Z,16.60
2023-03-21T14:30:32.858Z,15.82
2023-03-21T14:33:04.851Z,15.60
2023-03-21T14:35:32.363Z,13.98
2023-03-21T14:38:05.632Z,13.38
2023-03-21T14:40:32.036Z,12.00
2023-03-21T14:43:05.044Z,10.85
2023-03-21T14:45:33.767Z,11.93
2023-03-21T14:48:08.220Z,12.15
2023-03-21T14:50:40.841Z,11.52
2023-03-21T14:53:14.491Z,12.65
2023-03-21T14:55:44.835Z,12.38
2023-03-21T14:58:14.285Z,11.50
2023-03-21T15:00:40.827Z,11.93
2023-03-21T15:03:07.620Z,12.27
2023-03-21T15:05:38.442Z,12.35
2023-03-21T15:08:14.770Z,11.25
2023-03-21T15:10:41.764Z,12.88
2023-03-21T15:13:18.551Z,12.65
2023-03-21T15:15:45.631Z,14.82
2023-03-21T15:18:17.375Z,15.32
2023-03-21T15:23:19.929Z,12.48
2023-03-21T15:25:46.414Z,12.10
2023-03-21T15:28:14.244Z,13.00
2023-03-21T15:30:48.190Z,12.05
2023-03-21T15:33:15.249Z,13.05
2023-03-21T15:35:48.235Z,12.15
2023-03-21T15:38:36.294Z,12.40
2023-03-21T15:41:21.160Z,12.15
2023-03-21T15:43:59.938Z,12.35
2023-03-21T15:46:48.250Z,12.60
2023-03-21T15:49:14.746Z,12.70
2023-03-21T15:51:43.433Z,12.20
2023-03-21T15:54:27.109Z,12.13
2023-03-21T15:56:56.438Z,13.15
2023-03-21T15:59:26.729Z,16.20
2023-03-21T16:01:53.288Z,14.38
2023-03-21T16:04:20.340Z,13.10
2023-03-21T16:07:14.437Z,12.85
2023-03-21T16:09:44.659Z,12.57
2023-03-21T16:12:13.940Z,12.40
2023-03-21T16:14:42.557Z,11.85
2023-03-21T16:17:33.158Z,12.60
2023-03-21T16:20:00.735Z,12.10
2023-03-21T16:22:34.852Z,12.57
2023-03-21T16:25:01.326Z,11.85
2023-03-21T16:27:28.472Z,11.88
2023-03-21T16:29:54.861Z,11.27
2023-03-21T16:32:21.311Z,10.57
2023-03-21T16:34:48.348Z,12.10
2023-03-21T16:37:16.054Z,11.75
2023-03-21T16:39:43.013Z,11.05
2023-03-21T16:42:11.885Z,11.20
2023-03-21T16:44:39.530Z,11.23
2023-03-21T16:47:17.166Z,11.32
2023-03-21T16:49:44.157Z,11.60
2023-03-21T16:52:12.488Z,11.65
2023-03-21T16:54:40.241Z,11.98
2023-03-21T16:57:15.612Z,12.60
2023-03-21T16:59:42.732Z,12.10
2023-03-21T17:02:14.534Z,14.05
2023-03-21T17:04:41.036Z,24.13
2023-03-21T17:07:14.138Z,28.90
2023-03-21T17:09:43.645Z,19.85
2023-03-21T17:12:13.635Z,15.88
2023-03-21T17:14:41.887Z,15.00
2023-03-21T17:17:16.273Z,14.93
2023-03-21T17:19:43.155Z,14.25
2023-03-21T17:22:11.891Z,13.60
2023-03-21T17:24:39.725Z,15.95
2023-03-21T17:27:08.297Z,22.58
2023-03-21T17:29:34.782Z,20.05
2023-03-21T17:32:01.246Z,26.98
2023-03-21T17:34:27.681Z,24.73
2023-03-21T17:36:54.556Z,16.85
2023-03-21T17:39:24.195Z,13.80
2023-03-21T17:41:52.016Z,13.52
2023-03-21T17:44:19.864Z,13.40
2023-03-21T17:46:46.836Z,13.48
2023-03-21T17:49:15.741Z,13.65
2023-03-21T17:51:43.087Z,14.55
2023-03-21T17:54:10.061Z,15.75
2023-03-21T17:56:41.557Z,13.52
2023-03-21T17:59:12.520Z,15.05
2023-03-21T18:01:38.990Z,16.13
2023-03-21T18:04:05.738Z,16.73
2023-03-21T18:06:33.982Z,16.08
2023-03-21T18:09:01.123Z,16.05
2023-03-21T18:11:27.821Z,16.50
2023-03-21T18:14:06.502Z,15.98
2023-03-21T18:16:40.802Z,16.45
2023-03-21T18:19:07.321Z,15.55
2023-03-21T18:21:35.827Z,16.15
2023-03-21T18:24:02.527Z,18.60
2023-03-21T18:26:31.111Z,22.80
2023-03-21T18:29:47.331Z,21.65
2023-03-21T18:31:54.396Z,21.95
2023-03-21T18:34:30.829Z,21.00
2023-03-21T18:36:57.416Z,18.95
2023-03-21T18:39:23.845Z,22.35
2023-03-21T18:41:50.481Z,20.45
2023-03-21T18:44:19.376Z,20.33
2023-03-21T18:46:50.437Z,20.92
2023-03-21T18:52:04.861Z,20.85
2023-03-21T18:54:31.488Z,20.73
2023-03-21T18:59:44.842Z,19.55
2023-03-21T19:02:14.779Z,19.17
2023-03-21T19:04:41.629Z,20.13
2023-03-21T19:07:08.544Z,20.27
2023-03-21T19:09:58.203Z,18.85
2023-03-21T19:12:22.218Z,20.55
2023-03-21T19:14:48.912Z,20.92
2023-03-21T19:18:14.350Z,20.88
2023-03-21T19:20:01.955Z,20.63
2023-03-21T19:22:31.615Z,21.05
2023-03-21T19:24:58.650Z,20.52
2023-03-21T19:27:25.239Z,22.20
2023-03-21T19:30:08.378Z,21.27
2023-03-21T19:32:38.568Z,22.00
2023-03-21T19:35:05.538Z,21.55
2023-03-21T19:37:35.291Z,21.90
2023-03-21T19:40:03.508Z,23.45
2023-03-21T19:42:30.940Z,22.55
2023-03-21T19:44:57.780Z,24.70
2023-03-21T19:47:24.501Z,25.48
2023-03-21T19:52:40.482Z,22.55
2023-03-21T19:55:07.414Z,22.17
2023-03-21T19:57:34.870Z,22.27
2023-03-21T20:00:01.916Z,21.52
2023-03-21T20:02:37.006Z,20.85
2023-03-21T20:05:06.586Z,22.85
2023-03-21T20:07:33.184Z,21.95
2023-03-21T20:10:00.295Z,22.30
2023-03-21T20:12:27.553Z,21.60
2023-03-21T20:15:07.000Z,22.98
2023-03-21T20:17:38.849Z,20.50
2023-03-21T20:20:09.235Z,22.00
2023-03-21T20:23:05.079Z,20.25
2023-03-21T20:25:23.008Z,21.65
2023-03-21T20:28:09.276Z,22.48
2023-03-21T20:30:36.536Z,23.15
2023-03-21T20:33:03.100Z,22.83
2023-03-21T20:36:16.463Z,22.65
2023-03-21T20:38:20.456Z,23.52
2023-03-21T20:40:47.923Z,27.42
2023-03-21T20:43:50.801Z,27.35
2023-03-21T20:46:03.118Z,26.50
2023-03-21T20:48:29.736Z,22.38
2023-03-21T20:51:41.303Z,23.65
2023-03-21T20:53:53.795Z,23.00
2023-03-21T20:56:20.635Z,24.45
2023-03-21T20:59:01.960Z,24.63
2023-03-21T21:01:33.616Z,24.30
2023-03-21T21:04:00.710Z,26.23
2023-03-21T21:06:28.468Z,26.48
2023-03-21T21:08:55.826Z,22.45
2023-03-21T21:14:09.182Z,23.20
2023-03-21T21:16:35.598Z,23.52
2023-03-21T21:19:01.996Z,23.67
2023-03-21T21:21:28.753Z,23.20
2023-03-21T21:23:55.278Z,23.20
2023-03-21T21:26:21.665Z,20.95
2023-03-21T21:28:48.242Z,20.85
2023-03-21T21:31:19.838Z,20.08
2023-03-21T21:36:14.730Z,21.35
2023-03-21T21:38:41.170Z,23.48
2023-03-21T21:41:09.329Z,24.65
2023-03-21T21:43:35.947Z,24.63
2023-03-21T21:46:02.534Z,25.85
2023-03-21T21:48:28.977Z,26.50
2023-03-21T21:50:55.516Z,26.05
2023-03-21T21:53:22.650Z,25.13
2023-03-21T21:55:49.657Z,25.92
2023-03-21T21:58:18.472Z,26.55
2023-03-21T22:00:46.323Z,27.27
2023-03-21T22:03:14.504Z,27.63
2023-03-21T22:05:41.236Z,26.20
2023-03-21T22:08:09.641Z,27.83
2023-03-21T22:10:37.181Z,27.58
2023-03-21T22:13:03.914Z,26.42
2023-03-21T22:15:30.450Z,26.77
2023-03-21T22:17:56.985Z,28.15
2023-03-21T22:20:23.446Z,26.60
2023-03-21T22:22:49.946Z,28.60
2023-03-21T22:25:17.841Z,26.98
2023-03-21T22:27:44.356Z,26.40
2023-03-21T22:30:13.950Z,27.15
2023-03-21T22:32:41.078Z,26.27
2023-03-21T22:35:08.933Z,27.80
2023-03-21T22:37:37.694Z,27.58
2023-03-21T22:40:08.034Z,25.70
2023-03-21T22:42:35.225Z,25.75
2023-03-21T22:45:01.774Z,25.08
2023-03-21T22:47:28.544Z,25.70
2023-03-21T22:49:55.040Z,25.73
2023-03-21T22:52:21.436Z,24.58
2023-03-21T22:54:49.114Z,25.10
2023-03-21T22:57:16.683Z,23.33
2023-03-21T22:59:43.179Z,23.80
2023-03-21T23:02:09.723Z,24.85
2023-03-21T23:04:36.291Z,26.50
2023-03-21T23:07:03.316Z,26.17
2023-03-21T23:09:30.172Z,24.90
2023-03-21T23:11:56.579Z,26.05
2023-03-21T23:14:23.745Z,24.83
2023-03-21T23:16:52.578Z,25.92
2023-03-21T23:19:20.417Z,28.25
2023-03-21T23:21:47.786Z,25.35
2023-03-21T23:24:15.421Z,25.73
2023-03-21T23:26:42.539Z,27.75
2023-03-21T23:29:10.957Z,25.58
2023-03-21T23:31:37.701Z,24.63
2023-03-21T23:34:04.197Z,24.75
2023-03-21T23:36:31.077Z,26.33
2023-03-21T23:38:57.645Z,25.33
2023-03-21T23:41:25.645Z,26.83
2023-03-21T23:43:52.485Z,25.98
2023-03-21T23:46:19.926Z,25.30
2023-03-21T23:48:46.859Z,25.45
2023-03-21T23:51:16.119Z,25.10
2023-03-21T23:53:44.270Z,24.63
2023-03-21T23:56:19.222Z,24.38
2023-03-21T23:58:46.854Z,23.85
